Accueil
METAR-TAF:

METAR-TAF

Aéroports :

Metropolis Municipal Airport

Metropolis, Illinois, États-Unis

latitude: 37-11-09N, longitude: 088-45-02W, altitude: 117 m

Observation

Le bulletin a été fait il y a 22 minutes, à 21:35 UTC
Vent 4 kt de est/sud-est
Température 25°C
Humidité 83%
Pression 1016 hPa

METAR: KM30 122135Z AUTO 11004KT 25/22 A3001 RMK AO2 T02460219

Heure: 16:57 (21:57 UTC)


TAF: absent

Observations et prévisions météorologiques de plus de 4000 aéroports (messages METAR et TAF).

Les stations disponibles sont représentées par des disques jaunes et rouges sur la carte.

Passer la souris dessus pour voir le nom de la station.

Cliquer dessus pour voir les observations et prévisions météorologiques.

Pour changer de carte: cliquez sur les boutons verts avec une croix noire pour zoomer, sur le bouton vert avec un tiret pour effectuer un zoom arrière, ou sur les flèches vertes pour les cartes adjacentes.


METAR-TAF: